createdAt,value
2022-11-25T00:02:01.731Z,99094.42
2022-11-25T00:04:34.386Z,99096.46
2022-11-25T00:07:03.273Z,99092.73
2022-11-25T00:09:31.549Z,99090.29
2022-11-25T00:11:59.853Z,99093.56
2022-11-25T00:14:28.087Z,99092.69
2022-11-25T00:16:56.448Z,99095.52
2022-11-25T00:19:24.666Z,99093.58
2022-11-25T00:21:52.888Z,99094.40
2022-11-25T00:24:21.136Z,99090.38
2022-11-25T00:26:49.396Z,99095.36
2022-11-25T00:29:18.047Z,99098.39
2022-11-25T00:31:46.477Z,99099.66
2022-11-25T00:34:15.541Z,99099.57
2022-11-25T00:36:44.380Z,99105.58
2022-11-25T00:39:15.343Z,99102.64
2022-11-25T00:42:03.097Z,99101.98
2022-11-25T00:44:40.425Z,99102.02
2022-11-25T00:47:16.525Z,99106.77
2022-11-25T00:49:50.803Z,99103.70
2022-11-25T00:52:22.472Z,99105.41
2022-11-25T00:54:51.687Z,99106.45
2022-11-25T00:57:22.431Z,99110.95
2022-11-25T00:59:51.164Z,99109.22
2022-11-25T01:02:23.317Z,99111.33
2022-11-25T01:04:51.735Z,99110.96
2022-11-25T01:07:20.197Z,99111.89
2022-11-25T01:09:49.289Z,99108.75
2022-11-25T01:12:17.912Z,99106.53
2022-11-25T01:14:46.283Z,99107.09
2022-11-25T01:17:15.978Z,99110.23
2022-11-25T01:19:44.338Z,99107.78
2022-11-25T01:22:12.568Z,99111.27
2022-11-25T01:24:44.331Z,99111.81
2022-11-25T01:27:12.586Z,99112.33
2022-11-25T01:29:43.091Z,99114.73
2022-11-25T01:32:11.365Z,99116.07
2022-11-25T01:34:40.219Z,99111.83
2022-11-25T01:37:08.387Z,99111.27
2022-11-25T01:39:36.788Z,99112.42
2022-11-25T01:42:05.007Z,99115.05
2022-11-25T01:44:36.098Z,99116.43
2022-11-25T01:47:20.906Z,99114.85
2022-11-25T01:50:03.892Z,99114.14
2022-11-25T01:52:36.940Z,99111.52
2022-11-25T01:55:14.524Z,99106.62
2022-11-25T01:57:53.839Z,99110.46
2022-11-25T02:00:22.380Z,99110.50
2022-11-25T02:02:53.959Z,99113.05
2022-11-25T02:05:33.979Z,99109.14
2022-11-25T02:08:04.699Z,99109.23
2022-11-25T02:10:35.059Z,99112.99
2022-11-25T02:13:05.100Z,99112.11
2022-11-25T02:15:35.350Z,99116.08
2022-11-25T02:18:06.493Z,99116.16
2022-11-25T02:20:35.041Z,99114.89
2022-11-25T02:23:31.147Z,99116.17
2022-11-25T02:26:00.922Z,99112.13
2022-11-25T02:28:30.955Z,99114.14
2022-11-25T02:30:59.891Z,99111.73
2022-11-25T02:33:28.717Z,99114.11
2022-11-25T02:36:01.881Z,99112.80
2022-11-25T02:38:50.863Z,99114.45
2022-11-25T02:41:25.349Z,99115.23
2022-11-25T02:43:57.076Z,99114.08
2022-11-25T02:46:27.549Z,99112.23
2022-11-25T02:49:08.879Z,99106.54
2022-11-25T02:51:39.159Z,99101.52
2022-11-25T02:54:07.643Z,99104.42
2022-11-25T02:56:36.960Z,99109.10
2022-11-25T02:59:05.412Z,99110.14
2022-11-25T03:01:35.505Z,99110.14
2022-11-25T03:04:06.764Z,99111.39
2022-11-25T03:06:35.237Z,99120.86
2022-11-25T03:09:03.688Z,99121.01
2022-11-25T03:11:50.601Z,99121.52
2022-11-25T03:14:19.082Z,99124.61
2022-11-25T03:16:47.455Z,99125.81
2022-11-25T03:19:15.847Z,99123.63
2022-11-25T03:21:44.287Z,99121.14
2022-11-25T03:24:12.705Z,99120.02
2022-11-25T03:26:40.964Z,99123.34
2022-11-25T03:29:09.492Z,99120.18
2022-11-25T03:31:38.742Z,99125.41
2022-11-25T03:34:09.636Z,99129.42
2022-11-25T03:36:38.223Z,99134.89
2022-11-25T03:39:07.059Z,99134.42
2022-11-25T03:41:35.959Z,99139.16
2022-11-25T03:44:04.292Z,99140.95
2022-11-25T03:46:32.791Z,99138.84
2022-11-25T03:49:02.189Z,99140.19
2022-11-25T03:51:30.897Z,99138.77
2022-11-25T03:54:00.227Z,99139.34
2022-11-25T03:56:28.600Z,99138.64
2022-11-25T03:58:57.855Z,99141.06
2022-11-25T04:01:26.463Z,99139.48
2022-11-25T04:03:54.836Z,99139.66
2022-11-25T04:06:24.071Z,99140.57
2022-11-25T04:08:53.044Z,99139.17
2022-11-25T04:11:22.375Z,99142.98
2022-11-25T04:13:52.008Z,99140.34
2022-11-25T04:16:25.096Z,99145.58
2022-11-25T04:18:53.740Z,99143.14
2022-11-25T04:21:22.035Z,99146.10
2022-11-25T04:23:51.529Z,99147.48
2022-11-25T04:26:19.904Z,99147.67
2022-11-25T04:28:48.215Z,99146.27
2022-11-25T04:31:16.618Z,99150.11
2022-11-25T04:33:48.449Z,99147.66
2022-11-25T04:36:21.026Z,99145.19
2022-11-25T04:38:49.922Z,99150.23
2022-11-25T04:41:19.117Z,99150.41
2022-11-25T04:43:47.404Z,99151.48
2022-11-25T04:46:23.078Z,99154.09
2022-11-25T04:48:52.295Z,99155.11
2022-11-25T04:51:20.984Z,99162.46
2022-11-25T04:53:51.751Z,99157.45
2022-11-25T04:56:20.805Z,99160.10
2022-11-25T04:59:09.583Z,99163.77
2022-11-25T05:01:41.009Z,99166.63
2022-11-25T05:04:29.714Z,99174.36
2022-11-25T05:06:57.999Z,99172.95
2022-11-25T05:09:26.320Z,99177.46
2022-11-25T05:12:05.848Z,99182.36
2022-11-25T05:14:36.006Z,99184.27
2022-11-25T05:17:06.098Z,99188.10
2022-11-25T05:19:36.585Z,99192.95
2022-11-25T05:22:04.911Z,99194.85
2022-11-25T05:24:34.586Z,99195.31
2022-11-25T05:27:03.975Z,99195.83
2022-11-25T05:29:32.472Z,99195.78
2022-11-25T05:32:01.011Z,99198.59
2022-11-25T05:34:29.471Z,99199.83
2022-11-25T05:36:58.129Z,99200.36
2022-11-25T05:39:26.649Z,99201.75
2022-11-25T05:42:17.459Z,99205.61
2022-11-25T05:44:46.380Z,99208.91
2022-11-25T05:47:14.711Z,99213.49
2022-11-25T05:49:43.126Z,99217.68
2022-11-25T05:52:11.419Z,99220.13
2022-11-25T05:54:46.879Z,99220.48
2022-11-25T05:57:15.174Z,99225.36
2022-11-25T05:59:48.501Z,99226.39
2022-11-25T06:02:22.719Z,99227.73
2022-11-25T06:04:52.393Z,99228.44
2022-11-25T06:07:20.719Z,99231.20
2022-11-25T06:09:50.722Z,99234.28
2022-11-25T06:12:21.885Z,99234.58
2022-11-25T06:14:51.396Z,99238.61
2022-11-25T06:17:19.723Z,99239.29
2022-11-25T06:19:56.428Z,99240.81
2022-11-25T06:22:25.489Z,99239.73
2022-11-25T06:25:00.474Z,99242.16
2022-11-25T06:27:56.834Z,99242.79
2022-11-25T06:30:20.751Z,99243.91
2022-11-25T06:32:59.453Z,99249.39
2022-11-25T06:35:27.759Z,99252.77
2022-11-25T06:37:59.387Z,99254.41
2022-11-25T06:40:27.752Z,99256.42
2022-11-25T06:42:56.069Z,99256.27
2022-11-25T06:45:24.316Z,99255.79
2022-11-25T06:47:52.938Z,99262.48
2022-11-25T06:50:21.295Z,99262.57
2022-11-25T06:52:49.498Z,99264.73
2022-11-25T06:55:17.899Z,99267.95
2022-11-25T06:57:46.143Z,99266.05
2022-11-25T07:00:14.767Z,99268.89
2022-11-25T07:02:48.382Z,99269.87
2022-11-25T07:05:17.393Z,99270.56
2022-11-25T07:07:45.756Z,99272.10
2022-11-25T07:10:14.071Z,99275.19
2022-11-25T07:12:42.409Z,99277.39
2022-11-25T07:15:10.911Z,99273.30
2022-11-25T07:17:39.156Z,99279.41
2022-11-25T07:20:08.252Z,99278.05
2022-11-25T07:22:36.524Z,99280.70
2022-11-25T07:25:04.960Z,99280.55
2022-11-25T07:27:33.368Z,99280.90
2022-11-25T07:30:54.478Z,99284.09
2022-11-25T07:32:49.991Z,99284.13
2022-11-25T07:35:18.347Z,99284.13
2022-11-25T07:37:46.645Z,99284.04
2022-11-25T07:40:14.964Z,99285.35
2022-11-25T07:42:43.264Z,99286.50
2022-11-25T07:45:11.516Z,99282.46
2022-11-25T07:47:45.946Z,99285.05
2022-11-25T07:50:14.212Z,99286.29
2022-11-25T07:52:42.594Z,99285.77
2022-11-25T07:55:10.936Z,99287.86
2022-11-25T07:57:39.124Z,99287.35
2022-11-25T08:00:07.908Z,99290.20
2022-11-25T08:02:42.055Z,99295.16
2022-11-25T08:05:11.971Z,99295.73
2022-11-25T08:07:41.046Z,99298.94
2022-11-25T08:10:10.005Z,99299.30
2022-11-25T08:12:39.401Z,99299.64
2022-11-25T08:15:10.875Z,99303.98
2022-11-25T08:17:39.230Z,99302.88
2022-11-25T08:20:09.231Z,99299.71
2022-11-25T08:22:37.528Z,99303.39
2022-11-25T08:25:09.256Z,99302.33
2022-11-25T08:27:42.661Z,99306.98
2022-11-25T08:30:16.329Z,99308.15
2022-11-25T08:32:46.583Z,99311.90
2022-11-25T08:35:15.175Z,99313.36
2022-11-25T08:37:43.633Z,99312.09
2022-11-25T08:40:12.632Z,99310.40
2022-11-25T08:42:41.164Z,99312.50
2022-11-25T08:45:12.664Z,99312.88
2022-11-25T08:47:41.022Z,99314.73
2022-11-25T08:50:15.545Z,99316.33
2022-11-25T08:52:44.462Z,99319.64
2022-11-25T08:55:13.909Z,99321.89
2022-11-25T08:57:42.363Z,99324.11
2022-11-25T09:00:13.651Z,99325.31
2022-11-25T09:02:42.458Z,99328.73
2022-11-25T09:05:16.458Z,99330.73
2022-11-25T09:07:45.831Z,99332.33
2022-11-25T09:10:25.043Z,99332.85
2022-11-25T09:12:54.844Z,99333.40
2022-11-25T09:15:23.166Z,99333.95
2022-11-25T09:18:01.864Z,99335.16
2022-11-25T09:20:32.582Z,99333.02
2022-11-25T09:23:02.271Z,99332.50
2022-11-25T09:25:36.841Z,99332.30
2022-11-25T09:28:05.703Z,99334.19
2022-11-25T09:30:45.049Z,99330.75
2022-11-25T09:33:14.008Z,99332.48
2022-11-25T09:35:43.146Z,99332.33
2022-11-25T09:38:16.078Z,99333.41
2022-11-25T09:41:01.037Z,99337.10
2022-11-25T09:44:01.669Z,99336.39
2022-11-25T09:46:46.256Z,99338.63
2022-11-25T09:49:46.742Z,99340.22
2022-11-25T09:52:32.411Z,99335.88
2022-11-25T09:55:07.340Z,99337.67
2022-11-25T09:57:59.772Z,99338.80
2022-11-25T10:00:44.036Z,99339.21
2022-11-25T10:03:43.102Z,99338.60
2022-11-25T10:06:20.615Z,99340.12
2022-11-25T10:08:53.574Z,99341.67
2022-11-25T10:11:26.883Z,99343.27
2022-11-25T10:13:58.897Z,99345.57
2022-11-25T10:16:48.592Z,99343.15
2022-11-25T10:19:38.296Z,99344.41
2022-11-25T10:22:44.233Z,99347.41
2022-11-25T10:25:25.488Z,99347.52
2022-11-25T10:28:02.088Z,99342.65
2022-11-25T10:30:51.060Z,99344.96
2022-11-25T10:33:28.713Z,99346.59
2022-11-25T10:36:15.731Z,99342.39
2022-11-25T10:38:55.728Z,99345.62
2022-11-25T10:41:28.533Z,99343.50
2022-11-25T10:43:57.441Z,99340.20
2022-11-25T10:47:12.961Z,99341.15
2022-11-25T10:49:59.821Z,99344.38
2022-11-25T10:52:30.816Z,99345.08
2022-11-25T10:55:09.796Z,99346.98
2022-11-25T10:57:38.234Z,99348.16
2022-11-25T11:00:12.760Z,99350.65
2022-11-25T11:02:48.361Z,99348.66
2022-11-25T11:05:23.020Z,99348.52
2022-11-25T11:08:17.193Z,99349.23
2022-11-25T11:10:47.137Z,99348.55
2022-11-25T11:13:33.282Z,99350.87
2022-11-25T11:16:01.712Z,99354.27
2022-11-25T11:18:36.414Z,99357.64
2022-11-25T11:21:29.802Z,99360.92
2022-11-25T11:23:59.985Z,99362.20
2022-11-25T11:26:36.055Z,99367.88
2022-11-25T11:29:17.113Z,99365.65
2022-11-25T11:31:49.355Z,99370.35
2022-11-25T11:34:38.812Z,99370.92
2022-11-25T11:37:32.747Z,99372.04
2022-11-25T11:40:19.640Z,99374.80
2022-11-25T11:42:54.943Z,99371.70
2022-11-25T11:46:08.331Z,99370.73
2022-11-25T11:48:53.436Z,99370.29
2022-11-25T11:51:31.690Z,99372.64
2022-11-25T11:54:34.225Z,99373.23
2022-11-25T11:57:14.994Z,99377.55
2022-11-25T11:59:49.413Z,99375.75
2022-11-25T12:02:48.228Z,99375.02
2022-11-25T12:05:22.055Z,99372.85
2022-11-25T12:08:09.616Z,99370.66
2022-11-25T12:10:58.771Z,99373.17
2022-11-25T12:13:50.464Z,99373.30
2022-11-25T12:16:34.287Z,99373.21
2022-11-25T12:19:18.897Z,99374.91
2022-11-25T12:21:55.517Z,99379.64
2022-11-25T12:24:32.294Z,99378.70
2022-11-25T12:27:07.078Z,99379.83
2022-11-25T12:29:48.123Z,99383.35
2022-11-25T12:32:38.030Z,99385.70
2022-11-25T12:35:06.732Z,99383.96
2022-11-25T12:38:15.360Z,99387.70
2022-11-25T12:41:02.541Z,99388.05
2022-11-25T12:43:47.734Z,99387.49
2022-11-25T12:46:16.463Z,99389.42
2022-11-25T12:48:45.170Z,99391.90
2022-11-25T12:51:42.639Z,99388.45
2022-11-25T12:54:21.052Z,99389.34
2022-11-25T12:57:07.734Z,99389.73
2022-11-25T13:00:39.416Z,99390.65
2022-11-25T13:03:18.008Z,99389.44
2022-11-25T13:06:18.827Z,99392.65
2022-11-25T13:09:08.632Z,99389.15
2022-11-25T13:12:15.038Z,99393.40
2022-11-25T13:14:56.110Z,99396.77
2022-11-25T13:17:30.041Z,99397.37
2022-11-25T13:20:39.573Z,99399.73
2022-11-25T13:23:24.440Z,99402.95
2022-11-25T13:26:14.423Z,99402.48
2022-11-25T13:28:42.945Z,99403.92
2022-11-25T13:31:14.411Z,99399.70
2022-11-25T13:33:48.830Z,99401.94
2022-11-25T13:36:23.283Z,99398.77
2022-11-25T13:38:52.271Z,99402.46
2022-11-25T13:41:24.701Z,99407.41
2022-11-25T13:43:53.757Z,99403.70
2022-11-25T13:46:47.638Z,99406.83
2022-11-25T13:49:55.962Z,99406.13
2022-11-25T13:52:43.259Z,99401.75
2022-11-25T13:55:17.333Z,99401.79
2022-11-25T13:58:02.379Z,99403.29
2022-11-25T14:00:34.964Z,99405.46
2022-11-25T14:03:25.031Z,99403.48
2022-11-25T14:05:58.181Z,99405.77
2022-11-25T14:08:41.157Z,99408.85
2022-11-25T14:11:09.779Z,99413.52
2022-11-25T14:14:00.004Z,99415.80
2022-11-25T14:17:14.704Z,99416.13
2022-11-25T14:20:20.653Z,99414.81
2022-11-25T14:23:22.209Z,99419.16
2022-11-25T14:25:55.454Z,99417.52
2022-11-25T14:28:40.101Z,99415.33
2022-11-25T14:31:16.411Z,99418.80
2022-11-25T14:33:57.266Z,99422.47
2022-11-25T14:36:31.805Z,99427.23
2022-11-25T14:39:06.476Z,99428.92
2022-11-25T14:42:08.296Z,99428.13
2022-11-25T14:44:50.178Z,99429.13
2022-11-25T14:47:27.455Z,99428.83
2022-11-25T14:52:48.014Z,99427.20
2022-11-25T14:55:30.366Z,99428.81
2022-11-25T14:57:58.931Z,99430.45
2022-11-25T15:00:27.605Z,99428.56
2022-11-25T15:03:01.950Z,99431.45
2022-11-25T15:05:34.957Z,99431.19
2022-11-25T15:08:17.958Z,99430.05
2022-11-25T15:11:01.385Z,99428.75
2022-11-25T15:13:32.694Z,99430.07
2022-11-25T15:16:13.870Z,99433.67
2022-11-25T15:18:57.521Z,99432.54
2022-11-25T15:21:53.790Z,99434.83
2022-11-25T15:24:30.693Z,99434.77
2022-11-25T15:27:03.860Z,99435.91
2022-11-25T15:29:41.190Z,99438.05
2022-11-25T15:32:16.431Z,99443.15
2022-11-25T15:34:49.455Z,99443.70
2022-11-25T15:37:18.196Z,99447.60
2022-11-25T15:39:48.740Z,99445.63
2022-11-25T15:42:26.681Z,99451.04
2022-11-25T15:45:07.030Z,99453.38
2022-11-25T15:47:37.084Z,99454.85
2022-11-25T15:50:24.948Z,99456.63
2022-11-25T15:52:57.152Z,99452.44
2022-11-25T15:55:38.084Z,99453.86
2022-11-25T15:58:20.188Z,99455.88
2022-11-25T16:01:03.701Z,99453.70
2022-11-25T16:03:33.732Z,99456.42
2022-11-25T16:06:02.664Z,99456.30
2022-11-25T16:08:36.575Z,99453.39
2022-11-25T16:11:12.594Z,99454.31
2022-11-25T16:13:41.883Z,99458.90
2022-11-25T16:16:12.781Z,99460.52
2022-11-25T16:19:02.211Z,99458.41
2022-11-25T16:21:56.532Z,99460.15
2022-11-25T16:24:38.339Z,99456.84
2022-11-25T16:27:15.104Z,99456.48
2022-11-25T16:29:58.413Z,99454.86
2022-11-25T16:32:29.254Z,99457.83
2022-11-25T16:35:22.360Z,99459.80
2022-11-25T16:37:51.146Z,99458.66
2022-11-25T16:40:19.640Z,99457.13
2022-11-25T16:42:50.089Z,99456.46
2022-11-25T16:45:27.489Z,99457.59
2022-11-25T16:47:55.791Z,99460.94
2022-11-25T16:50:24.422Z,99457.58
2022-11-25T16:52:56.276Z,99459.52
2022-11-25T16:55:25.364Z,99460.02
2022-11-25T16:57:54.429Z,99463.95
2022-11-25T17:00:22.844Z,99464.84
2022-11-25T17:02:51.299Z,99464.52
2022-11-25T17:05:21.948Z,99468.29
2022-11-25T17:07:51.141Z,99471.77
2022-11-25T17:10:20.884Z,99471.92
2022-11-25T17:12:52.139Z,99473.33
2022-11-25T17:15:29.394Z,99475.63
2022-11-25T17:17:58.731Z,99476.88
2022-11-25T17:20:27.694Z,99480.36
2022-11-25T17:22:58.981Z,99481.02
2022-11-25T17:25:31.082Z,99486.95
2022-11-25T17:28:07.228Z,99491.19
2022-11-25T17:30:38.728Z,99487.36
2022-11-25T17:33:19.096Z,99487.16
2022-11-25T17:35:47.667Z,99486.52
2022-11-25T17:38:19.676Z,99489.49
2022-11-25T17:40:48.241Z,99485.98
2022-11-25T17:43:19.260Z,99489.99
2022-11-25T17:45:47.868Z,99487.06
2022-11-25T17:48:17.868Z,99490.01
2022-11-25T17:50:48.304Z,99492.80
2022-11-25T17:53:16.591Z,99492.99
2022-11-25T17:55:44.902Z,99492.44
2022-11-25T17:58:19.290Z,99497.30
2022-11-25T18:00:48.981Z,99500.46
2022-11-25T18:03:17.487Z,99501.35
2022-11-25T18:05:46.289Z,99502.55
2022-11-25T18:08:15.161Z,99505.14
2022-11-25T18:10:46.443Z,99505.80
2022-11-25T18:13:16.470Z,99503.67
2022-11-25T18:15:45.844Z,99508.56
2022-11-25T18:18:25.630Z,99512.56
2022-11-25T18:20:54.334Z,99512.35
2022-11-25T18:23:24.084Z,99514.06
2022-11-25T18:25:58.065Z,99516.55
2022-11-25T18:28:28.865Z,99518.20
2022-11-25T18:31:01.020Z,99518.90
2022-11-25T18:33:30.183Z,99518.36
2022-11-25T18:35:58.598Z,99516.83
2022-11-25T18:38:32.256Z,99515.98
2022-11-25T18:41:06.251Z,99518.30
2022-11-25T18:43:35.210Z,99519.55
2022-11-25T18:46:09.491Z,99519.73
2022-11-25T18:48:40.646Z,99523.57
2022-11-25T18:51:11.861Z,99524.80
2022-11-25T18:53:40.181Z,99525.69
2022-11-25T18:56:17.711Z,99529.54
2022-11-25T18:58:50.779Z,99526.38
2022-11-25T19:01:22.276Z,99525.25
2022-11-25T19:03:51.259Z,99526.05
2022-11-25T19:06:24.725Z,99529.29
2022-11-25T19:08:53.319Z,99528.89
2022-11-25T19:11:43.534Z,99527.55
2022-11-25T19:14:29.055Z,99528.77
2022-11-25T19:17:02.795Z,99526.84
2022-11-25T19:19:39.568Z,99526.93
2022-11-25T19:22:22.984Z,99531.45
2022-11-25T19:24:52.218Z,99528.20
2022-11-25T19:27:24.064Z,99524.73
2022-11-25T19:29:54.614Z,99529.26
2022-11-25T19:32:29.527Z,99534.38
2022-11-25T19:35:03.147Z,99540.06
2022-11-25T19:37:31.966Z,99547.88
2022-11-25T19:40:03.088Z,99549.35
2022-11-25T19:42:33.675Z,99554.11
2022-11-25T19:45:12.303Z,99553.83
2022-11-25T19:47:40.647Z,99555.75
2022-11-25T19:50:22.738Z,99558.17
2022-11-25T19:52:52.386Z,99559.52
2022-11-25T19:55:25.973Z,99561.40
2022-11-25T19:57:57.689Z,99561.16
2022-11-25T20:00:27.016Z,99564.40
2022-11-25T20:02:56.349Z,99564.47
2022-11-25T20:05:33.369Z,99566.01
2022-11-25T20:08:01.864Z,99570.52
2022-11-25T20:10:33.483Z,99575.15
2022-11-25T20:13:01.811Z,99575.60
2022-11-25T20:15:31.031Z,99582.02
2022-11-25T20:18:01.640Z,99582.33
2022-11-25T20:20:39.367Z,99581.45
2022-11-25T20:23:17.143Z,99584.40
2022-11-25T20:25:50.060Z,99588.05
2022-11-25T20:28:27.072Z,99589.09
2022-11-25T20:31:02.870Z,99590.08
2022-11-25T20:33:33.449Z,99590.75
2022-11-25T20:36:14.180Z,99593.36
2022-11-25T20:38:48.422Z,99596.66
2022-11-25T20:41:18.414Z,99600.11
2022-11-25T20:43:50.518Z,99608.12
2022-11-25T20:46:23.133Z,99607.58
2022-11-25T20:48:56.844Z,99611.92
2022-11-25T20:51:33.251Z,99614.56
2022-11-25T20:54:01.781Z,99618.23
2022-11-25T20:56:30.566Z,99623.30
2022-11-25T20:59:02.129Z,99625.92
2022-11-25T21:01:30.575Z,99628.72
2022-11-25T21:03:58.912Z,99626.42
2022-11-25T21:06:30.298Z,99627.08
2022-11-25T21:09:01.268Z,99630.73
2022-11-25T21:11:33.064Z,99630.13
2022-11-25T21:14:01.663Z,99625.69
2022-11-25T21:16:30.179Z,99624.94
2022-11-25T21:19:03.883Z,99620.67
2022-11-25T21:21:35.973Z,99621.48
2022-11-25T21:24:24.000Z,99619.30
2022-11-25T21:26:52.454Z,99622.40
2022-11-25T21:29:20.956Z,99623.05
2022-11-25T21:31:49.599Z,99619.68
2022-11-25T21:34:18.040Z,99618.83
2022-11-25T21:36:49.239Z,99621.98
2022-11-25T21:39:23.592Z,99621.98
2022-11-25T21:41:52.407Z,99624.97
2022-11-25T21:44:28.811Z,99625.27
2022-11-25T21:46:57.227Z,99628.11
2022-11-25T21:49:26.668Z,99626.04
2022-11-25T21:51:55.575Z,99627.13
2022-11-25T21:54:23.976Z,99626.18
2022-11-25T21:56:52.404Z,99627.17
2022-11-25T21:59:21.134Z,99631.34
2022-11-25T22:01:49.487Z,99628.11
2022-11-25T22:04:21.312Z,99632.24
2022-11-25T22:06:57.368Z,99636.25
2022-11-25T22:09:28.342Z,99635.45
2022-11-25T22:12:02.421Z,99636.84
2022-11-25T22:14:40.883Z,99637.05
2022-11-25T22:17:18.137Z,99632.71
2022-11-25T22:19:51.055Z,99635.73
2022-11-25T22:22:25.489Z,99637.19
2022-11-25T22:24:56.642Z,99643.59
2022-11-25T22:27:29.855Z,99642.83
2022-11-25T22:30:02.446Z,99648.17
2022-11-25T22:32:33.120Z,99650.29
2022-11-25T22:35:06.046Z,99650.45
2022-11-25T22:37:35.213Z,99648.88
2022-11-25T22:40:05.346Z,99653.60
2022-11-25T22:42:33.864Z,99657.13
2022-11-25T22:45:07.414Z,99662.23
2022-11-25T22:47:41.017Z,99665.38
2022-11-25T22:50:29.074Z,99668.36
2022-11-25T22:52:58.631Z,99665.73
2022-11-25T22:55:32.206Z,99660.34
2022-11-25T22:58:01.800Z,99660.77
2022-11-25T23:00:37.535Z,99657.46
2022-11-25T23:03:20.468Z,99660.14
2022-11-25T23:05:51.429Z,99658.43
2022-11-25T23:08:24.001Z,99662.19
2022-11-25T23:10:59.020Z,99661.86
2022-11-25T23:13:27.313Z,99663.30
2022-11-25T23:15:58.810Z,99664.20
2022-11-25T23:18:41.028Z,99664.02
2022-11-25T23:21:27.944Z,99661.39
2022-11-25T23:23:57.129Z,99664.02
2022-11-25T23:26:35.021Z,99662.80
2022-11-25T23:29:03.960Z,99660.43
2022-11-25T23:31:38.208Z,99659.14
2022-11-25T23:34:12.601Z,99660.44
2022-11-25T23:36:46.394Z,99660.52
2022-11-25T23:39:24.419Z,99657.96
2022-11-25T23:41:54.312Z,99661.77
2022-11-25T23:44:29.632Z,99659.38
2022-11-25T23:47:20.407Z,99658.02
2022-11-25T23:49:52.300Z,99659.96
2022-11-25T23:52:24.335Z,99662.96
2022-11-25T23:54:53.179Z,99664.42
2022-11-25T23:57:24.763Z,99665.15
2022-11-25T23:59:53.933Z,99664.81
